Glenrock, Wyoming
Current Conditions -  °F | °C
As of 8:35 PM on Saturday 22 Nov 2014 (Local Time) from KCPR Reporting Station
Broken Clouds Broken Clouds  
Wind Chill: -2°   Ceiling: 3800
Heat Index:   Visibility: 10mi
Dew Point: -1°   Wind: 16mph
Humidity: 73%   Direction: 340°NNW
Pressure: 29.57"   Gusts: 28mph
Location:  42.86°N, 105.87°W
Report Text: KCPR 230335Z 34014G24KT 10SM FEW026 SCT030 BKN038 03/M01 A2957 RMK AO2 WSHFT 0321 T00331011
Loading
Personal Weather Stations






























Interactive Weather Map New forecast layout! Learn more

10-Day Weather Forecast

Advertisements
Track Severe Weather on mobile